Las Palomas, New Mexico
Current Conditions -  °F | °C
As of 1:53 PM on Saturday 25 Oct 2014 (Local Time) from KTCS Reporting Station
Clear Clear  
Wind Chill: 78°   Ceiling: Unl
Heat Index: 78°   Visibility: 10mi
Dew Point: 42°   Wind: 9mph
Humidity: 28%   Direction: 170°S
Pressure: 30.22"   Gusts: NA
Location:  33.1162°N, 107.291°W
Report Text: KTCS 251953Z AUTO 17008KT 10SM CLR 26/06 A3022 RMK AO2 SLP161 T02560056 TSNO
Loading
Personal Weather Stations






























Interactive Weather Map New forecast layout! Learn more

10-Day Weather Forecast

Advertisements
Track Severe Weather on mobile